createdAt,value
2023-02-22T00:00:25.576Z,95.102
2023-02-22T00:01:26.174Z,95.162
2023-02-22T00:02:25.948Z,95.247
2023-02-22T00:03:25.750Z,95.219
2023-02-22T00:04:25.497Z,95.249
2023-02-22T00:05:26.069Z,95.267
2023-02-22T00:06:25.684Z,95.181
2023-02-22T00:07:27.089Z,95.074
2023-02-22T00:08:25.703Z,95.007
2023-02-22T00:09:26.316Z,95.034
2023-02-22T00:10:26.001Z,95.013
2023-02-22T00:11:25.750Z,95.043
2023-02-22T00:12:25.516Z,95.194
2023-02-22T00:13:26.148Z,95.230
2023-02-22T00:14:25.890Z,95.499
2023-02-22T00:15:25.549Z,95.341
2023-02-22T00:16:26.427Z,95.329
2023-02-22T00:17:26.328Z,95.316
2023-02-22T00:18:25.940Z,95.509
2023-02-22T00:19:25.536Z,95.400
2023-02-22T00:20:26.205Z,95.270
2023-02-22T00:21:25.904Z,95.202
2023-02-22T00:22:25.629Z,95.320
2023-02-22T00:23:26.503Z,95.244
2023-02-22T00:24:26.228Z,95.572
2023-02-22T00:25:25.849Z,95.560
2023-02-22T00:26:25.421Z,95.440
2023-02-22T00:27:26.072Z,95.621
2023-02-22T00:28:25.716Z,95.398
2023-02-22T00:29:26.373Z,95.253
2023-02-22T00:30:26.191Z,95.177
2023-02-22T00:31:25.966Z,95.417
2023-02-22T00:32:25.637Z,95.495
2023-02-22T00:33:26.277Z,95.705
2023-02-22T00:34:26.394Z,95.699
2023-02-22T00:35:26.107Z,95.638
2023-02-22T00:36:25.753Z,95.421
2023-02-22T00:37:25.364Z,95.408
2023-02-22T00:38:26.228Z,95.507
2023-02-22T00:39:25.776Z,95.425
2023-02-22T00:40:25.425Z,95.457
2023-02-22T00:41:26.187Z,95.547
2023-02-22T00:42:25.940Z,95.625
2023-02-22T00:43:25.665Z,95.604
2023-02-22T00:44:26.300Z,95.448
2023-02-22T00:45:25.929Z,95.631
2023-02-22T00:46:25.747Z,95.793
2023-02-22T00:47:25.415Z,95.585
2023-02-22T00:48:26.043Z,95.781
2023-02-22T00:49:25.703Z,95.745
2023-02-22T00:50:26.289Z,95.772
2023-02-22T00:51:25.920Z,95.753
2023-02-22T00:52:25.549Z,95.740
2023-02-22T00:53:26.256Z,95.846
2023-02-22T00:54:26.140Z,95.961
2023-02-22T00:55:25.749Z,95.917
2023-02-22T00:56:25.468Z,95.873
2023-02-22T00:57:26.129Z,95.808
2023-02-22T00:58:25.436Z,95.822
2023-02-22T00:59:25.988Z,95.873
2023-02-22T01:00:25.600Z,95.856
2023-02-22T01:01:26.402Z,95.781
2023-02-22T01:02:26.432Z,95.904
2023-02-22T01:03:27.185Z,96.056
2023-02-22T01:04:26.581Z,95.944
2023-02-22T01:05:25.652Z,95.930
2023-02-22T01:06:25.442Z,95.967
2023-02-22T01:07:26.029Z,95.959
2023-02-22T01:08:25.658Z,96.037
2023-02-22T01:09:26.273Z,96.136
2023-02-22T01:10:25.936Z,96.163
2023-02-22T01:11:25.565Z,96.165
2023-02-22T01:12:26.301Z,96.094
2023-02-22T01:13:26.096Z,96.182
2023-02-22T01:14:25.672Z,96.182
2023-02-22T01:15:26.355Z,96.146
2023-02-22T01:16:26.046Z,96.125
2023-02-22T01:17:25.760Z,96.092
2023-02-22T01:18:25.479Z,96.035
2023-02-22T01:19:26.204Z,96.028
2023-02-22T01:20:25.878Z,96.150
2023-02-22T01:21:25.472Z,96.052
2023-02-22T01:22:26.181Z,96.003
2023-02-22T01:23:25.984Z,95.957
2023-02-22T01:24:25.576Z,96.008
2023-02-22T01:25:26.173Z,95.961
2023-02-22T01:26:25.853Z,95.976
2023-02-22T01:27:25.541Z,95.986
2023-02-22T01:28:26.358Z,96.020
2023-02-22T01:29:26.121Z,96.037
2023-02-22T01:30:26.092Z,96.022
2023-02-22T01:31:26.257Z,96.150
2023-02-22T01:33:25.737Z,96.098
2023-02-22T01:34:25.356Z,96.077
2023-02-22T01:35:26.054Z,96.073
2023-02-22T01:36:25.654Z,96.085
2023-02-22T01:37:26.306Z,96.102
2023-02-22T01:38:26.066Z,96.123
2023-02-22T01:39:25.564Z,95.986
2023-02-22T01:40:26.216Z,95.934
2023-02-22T01:41:25.822Z,95.980
2023-02-22T01:42:25.524Z,95.955
2023-02-22T01:43:26.170Z,95.919
2023-02-22T01:44:25.767Z,95.869
2023-02-22T01:45:26.536Z,95.864
2023-02-22T01:46:26.404Z,95.972
2023-02-22T01:48:25.642Z,96.106
2023-02-22T01:49:26.239Z,96.073
2023-02-22T01:50:25.823Z,96.062
2023-02-22T01:51:25.491Z,95.905
2023-02-22T01:52:26.150Z,95.909
2023-02-22T01:53:25.733Z,95.955
2023-02-22T01:54:25.442Z,95.972
2023-02-22T01:55:26.036Z,96.098
2023-02-22T01:56:25.720Z,96.014
2023-02-22T01:57:25.459Z,95.902
2023-02-22T01:58:25.986Z,95.862
2023-02-22T01:59:25.603Z,95.854
2023-02-22T02:00:26.311Z,95.915
2023-02-22T02:01:25.954Z,95.986
2023-02-22T02:02:25.596Z,95.896
2023-02-22T02:03:26.228Z,96.028
2023-02-22T02:04:25.877Z,95.959
2023-02-22T02:05:25.861Z,95.951
2023-02-22T02:06:25.567Z,95.833
2023-02-22T02:07:26.316Z,95.846
2023-02-22T02:08:25.976Z,95.717
2023-02-22T02:09:25.570Z,95.829
2023-02-22T02:10:26.211Z,95.856
2023-02-22T02:11:28.336Z,95.797
2023-02-22T02:12:25.975Z,95.955
2023-02-22T02:13:25.855Z,95.867
2023-02-22T02:14:25.504Z,95.936
2023-02-22T02:15:26.303Z,95.881
2023-02-22T02:16:26.210Z,95.984
2023-02-22T02:17:26.083Z,95.793
2023-02-22T02:18:25.688Z,95.980
2023-02-22T02:19:26.560Z,95.846
2023-02-22T02:20:26.316Z,95.787
2023-02-22T02:21:25.929Z,95.871
2023-02-22T02:22:25.657Z,95.850
2023-02-22T02:23:25.467Z,95.879
2023-02-22T02:24:26.024Z,95.854
2023-02-22T02:25:25.629Z,96.007
2023-02-22T02:26:26.262Z,96.075
2023-02-22T02:27:25.860Z,96.190
2023-02-22T02:28:25.573Z,96.224
2023-02-22T02:29:26.274Z,96.255
2023-02-22T02:30:26.094Z,96.121
2023-02-22T02:31:26.059Z,96.127
2023-02-22T02:32:26.130Z,96.113
2023-02-22T02:33:26.281Z,96.106
2023-02-22T02:34:25.928Z,96.089
2023-02-22T02:35:25.581Z,96.075
2023-02-22T02:36:26.221Z,96.035
2023-02-22T02:37:25.842Z,96.066
2023-02-22T02:38:25.595Z,96.005
2023-02-22T02:39:25.552Z,95.972
2023-02-22T02:40:26.404Z,95.965
2023-02-22T02:41:26.120Z,95.879
2023-02-22T02:42:25.847Z,95.837
2023-02-22T02:43:25.631Z,95.781
2023-02-22T02:44:26.324Z,95.772
2023-02-22T02:45:26.013Z,95.797
2023-02-22T02:46:25.668Z,95.778
2023-02-22T02:47:26.476Z,95.764
2023-02-22T02:48:26.133Z,95.736
2023-02-22T02:49:25.711Z,95.680
2023-02-22T02:50:26.346Z,95.669
2023-02-22T02:52:25.605Z,95.726
2023-02-22T02:53:26.212Z,95.705
2023-02-22T02:54:25.786Z,95.658
2023-02-22T02:55:25.389Z,95.669
2023-02-22T02:56:26.043Z,95.822
2023-02-22T02:57:25.613Z,95.833
2023-02-22T02:58:26.301Z,95.715
2023-02-22T02:59:25.950Z,95.635
2023-02-22T03:00:25.560Z,95.703
2023-02-22T03:01:26.353Z,95.795
2023-02-22T03:02:26.065Z,95.743
2023-02-22T03:03:25.837Z,95.789
2023-02-22T03:04:25.439Z,95.717
2023-02-22T03:05:26.133Z,95.818
2023-02-22T03:06:25.749Z,95.785
2023-02-22T03:07:25.571Z,95.858
2023-02-22T03:08:26.274Z,95.711
2023-02-22T03:09:26.207Z,95.740
2023-02-22T03:10:25.829Z,95.753
2023-02-22T03:11:25.597Z,95.696
2023-02-22T03:12:26.328Z,95.745
2023-02-22T03:13:26.044Z,95.699
2023-02-22T03:14:25.799Z,95.627
2023-02-22T03:15:25.428Z,95.791
2023-02-22T03:16:26.439Z,95.795
2023-02-22T03:17:26.333Z,95.936
2023-02-22T03:18:26.033Z,96.077
2023-02-22T03:19:25.709Z,96.056
2023-02-22T03:20:26.320Z,95.928
2023-02-22T03:21:26.053Z,95.974
2023-02-22T03:22:25.756Z,96.052
2023-02-22T03:23:25.534Z,96.054
2023-02-22T03:24:26.068Z,95.940
2023-02-22T03:25:25.793Z,95.938
2023-02-22T03:26:25.449Z,96.070
2023-02-22T03:27:26.092Z,95.982
2023-02-22T03:28:25.720Z,96.028
2023-02-22T03:29:26.328Z,96.020
2023-02-22T03:30:26.299Z,96.085
2023-02-22T03:31:26.463Z,96.159
2023-02-22T03:32:26.291Z,96.270
2023-02-22T03:33:26.008Z,96.352
2023-02-22T03:34:25.759Z,96.382
2023-02-22T03:35:26.063Z,96.327
2023-02-22T03:36:25.667Z,96.319
2023-02-22T03:37:26.317Z,96.430
2023-02-22T03:38:26.116Z,96.325
2023-02-22T03:39:25.812Z,96.270
2023-02-22T03:40:25.408Z,96.295
2023-02-22T03:41:26.060Z,96.266
2023-02-22T03:42:25.784Z,96.268
2023-02-22T03:43:25.540Z,96.258
2023-02-22T03:44:26.281Z,96.293
2023-02-22T03:45:26.004Z,96.335
2023-02-22T03:46:25.884Z,96.310
2023-02-22T03:47:25.769Z,96.256
2023-02-22T03:48:25.581Z,96.237
2023-02-22T03:49:25.636Z,96.193
2023-02-22T03:50:26.395Z,96.134
2023-02-22T03:51:26.084Z,96.125
2023-02-22T03:52:25.825Z,96.090
2023-02-22T03:53:25.488Z,96.043
2023-02-22T03:54:26.129Z,96.113
2023-02-22T03:55:25.737Z,96.039
2023-02-22T03:56:26.306Z,96.066
2023-02-22T03:57:26.021Z,96.087
2023-02-22T03:58:25.781Z,96.029
2023-02-22T03:59:25.363Z,96.020
2023-02-22T04:00:26.144Z,96.008
2023-02-22T04:01:25.914Z,96.039
2023-02-22T04:02:25.652Z,96.033
2023-02-22T04:03:26.278Z,96.104
2023-02-22T04:04:26.158Z,96.209
2023-02-22T04:05:25.832Z,96.085
2023-02-22T04:06:25.556Z,96.031
2023-02-22T04:07:26.285Z,96.003
2023-02-22T04:08:26.165Z,96.041
2023-02-22T04:09:25.886Z,96.001
2023-02-22T04:10:25.560Z,95.995
2023-02-22T04:11:26.408Z,96.003
2023-02-22T04:12:26.029Z,96.033
2023-02-22T04:13:25.696Z,96.003
2023-02-22T04:14:27.619Z,96.007
2023-02-22T04:15:25.622Z,95.989
2023-02-22T04:16:28.951Z,95.957
2023-02-22T04:17:28.814Z,96.022
2023-02-22T04:18:29.592Z,96.056
2023-02-22T04:19:25.592Z,96.079
2023-02-22T04:20:26.304Z,96.420
2023-02-22T04:21:25.953Z,96.575
2023-02-22T04:22:25.597Z,96.522
2023-02-22T04:23:26.197Z,96.604
2023-02-22T04:24:25.879Z,96.584
2023-02-22T04:25:25.548Z,96.605
2023-02-22T04:26:26.237Z,96.497
2023-02-22T04:27:25.873Z,96.520
2023-02-22T04:28:25.485Z,96.508
2023-02-22T04:29:26.181Z,96.428
2023-02-22T04:30:26.026Z,96.438
2023-02-22T04:31:25.876Z,96.445
2023-02-22T04:32:25.700Z,96.396
2023-02-22T04:33:26.315Z,96.405
2023-02-22T04:34:26.022Z,96.365
2023-02-22T04:35:25.672Z,96.331
2023-02-22T04:36:26.272Z,96.386
2023-02-22T04:37:25.937Z,96.464
2023-02-22T04:38:25.562Z,96.438
2023-02-22T04:39:26.396Z,96.457
2023-02-22T04:40:25.521Z,96.527
2023-02-22T04:41:27.356Z,96.481
2023-02-22T04:42:26.067Z,96.512
2023-02-22T04:43:25.708Z,96.544
2023-02-22T04:44:25.445Z,96.516
2023-02-22T04:45:26.127Z,96.502
2023-02-22T04:46:25.965Z,96.516
2023-02-22T04:47:25.796Z,96.487
2023-02-22T04:48:25.428Z,96.535
2023-02-22T04:49:26.112Z,96.586
2023-02-22T04:50:25.697Z,96.581
2023-02-22T04:51:26.353Z,96.623
2023-02-22T04:53:25.738Z,96.604
2023-02-22T04:54:25.397Z,96.684
2023-02-22T04:55:26.013Z,96.613
2023-02-22T04:56:25.670Z,96.707
2023-02-22T04:57:25.411Z,96.796
2023-02-22T04:58:28.759Z,96.729
2023-02-22T04:59:25.535Z,96.741
2023-02-22T05:00:26.211Z,96.831
2023-02-22T05:01:25.891Z,96.815
2023-02-22T05:02:25.609Z,96.783
2023-02-22T05:03:26.324Z,96.834
2023-02-22T05:04:26.044Z,96.819
2023-02-22T05:05:25.823Z,96.842
2023-02-22T05:06:25.429Z,96.869
2023-02-22T05:07:26.300Z,96.903
2023-02-22T05:08:26.008Z,96.867
2023-02-22T05:09:25.587Z,96.857
2023-02-22T05:10:26.320Z,96.892
2023-02-22T05:11:25.881Z,96.899
2023-02-22T05:12:25.465Z,96.859
2023-02-22T05:13:26.149Z,96.899
2023-02-22T05:14:25.841Z,96.853
2023-02-22T05:15:25.496Z,96.880
2023-02-22T05:16:26.287Z,96.890
2023-02-22T05:17:25.909Z,96.960
2023-02-22T05:18:25.517Z,96.934
2023-02-22T05:19:26.151Z,96.926
2023-02-22T05:20:26.020Z,96.926
2023-02-22T05:21:25.636Z,96.930
2023-02-22T05:22:26.297Z,96.956
2023-02-22T05:23:25.848Z,96.953
2023-02-22T05:24:25.494Z,96.918
2023-02-22T05:25:27.138Z,96.926
2023-02-22T05:26:25.860Z,96.960
2023-02-22T05:27:25.496Z,96.964
2023-02-22T05:28:26.168Z,96.955
2023-02-22T05:29:25.897Z,96.966
2023-02-22T05:30:25.579Z,96.892
2023-02-22T05:31:25.618Z,96.930
2023-02-22T05:32:26.155Z,96.886
2023-02-22T05:33:25.772Z,96.846
2023-02-22T05:34:25.358Z,96.932
2023-02-22T05:35:25.983Z,96.869
2023-02-22T05:36:25.614Z,96.884
2023-02-22T05:37:26.288Z,96.832
2023-02-22T05:38:25.880Z,96.882
2023-02-22T05:39:25.465Z,96.878
2023-02-22T05:40:26.160Z,96.886
2023-02-22T05:41:25.984Z,96.916
2023-02-22T05:42:25.739Z,96.848
2023-02-22T05:43:26.357Z,96.899
2023-02-22T05:44:25.992Z,96.777
2023-02-22T05:45:25.522Z,96.817
2023-02-22T05:46:26.346Z,96.831
2023-02-22T05:47:26.157Z,96.825
2023-02-22T05:48:25.789Z,96.865
2023-02-22T05:49:25.353Z,96.831
2023-02-22T05:50:26.004Z,96.838
2023-02-22T05:51:25.605Z,96.773
2023-02-22T05:52:26.252Z,96.792
2023-02-22T05:53:25.913Z,96.804
2023-02-22T05:54:25.685Z,96.806
2023-02-22T05:55:26.320Z,96.764
2023-02-22T05:56:26.298Z,96.789
2023-02-22T05:57:25.927Z,96.764
2023-02-22T05:58:25.523Z,96.783
2023-02-22T05:59:26.204Z,96.741
2023-02-22T06:00:25.816Z,96.729
2023-02-22T06:01:25.583Z,96.699
2023-02-22T06:02:26.400Z,96.768
2023-02-22T06:03:26.044Z,96.708
2023-02-22T06:04:25.626Z,96.741
2023-02-22T06:05:26.295Z,96.743
2023-02-22T06:06:26.225Z,96.758
2023-02-22T06:07:25.848Z,96.760
2023-02-22T06:08:25.505Z,96.752
2023-02-22T06:09:26.069Z,96.680
2023-02-22T06:10:25.708Z,96.705
2023-02-22T06:11:26.316Z,96.722
2023-02-22T06:12:25.895Z,96.714
2023-02-22T06:13:25.568Z,96.655
2023-02-22T06:14:26.304Z,96.699
2023-02-22T06:15:25.958Z,96.716
2023-02-22T06:16:26.309Z,96.684
2023-02-22T06:17:25.922Z,96.674
2023-02-22T06:18:25.576Z,96.659
2023-02-22T06:19:26.177Z,96.691
2023-02-22T06:20:25.875Z,96.729
2023-02-22T06:21:25.785Z,96.699
2023-02-22T06:22:26.403Z,96.663
2023-02-22T06:23:27.139Z,96.705
2023-02-22T06:24:26.864Z,96.676
2023-02-22T06:25:26.649Z,96.712
2023-02-22T06:26:27.332Z,96.743
2023-02-22T06:27:27.380Z,96.752
2023-02-22T06:28:27.076Z,96.720
2023-02-22T06:29:26.817Z,96.735
2023-02-22T06:30:26.695Z,96.716
2023-02-22T06:32:26.723Z,96.720
2023-02-22T06:33:26.367Z,96.665
2023-02-22T06:34:27.024Z,96.678
2023-02-22T06:35:26.734Z,96.668
2023-02-22T06:36:26.381Z,96.615
2023-02-22T06:37:27.017Z,96.626
2023-02-22T06:38:26.661Z,96.588
2023-02-22T06:39:27.308Z,96.546
2023-02-22T06:40:27.061Z,96.426
2023-02-22T06:41:26.682Z,96.382
2023-02-22T06:42:27.417Z,96.291
2023-02-22T06:43:27.119Z,96.237
2023-02-22T06:44:26.722Z,96.214
2023-02-22T06:45:26.545Z,96.241
2023-02-22T06:46:27.313Z,96.203
2023-02-22T06:47:27.025Z,96.171
2023-02-22T06:48:26.661Z,96.234
2023-02-22T06:49:27.321Z,96.140
2023-02-22T06:50:26.932Z,96.146
2023-02-22T06:51:26.615Z,96.111
2023-02-22T06:52:27.300Z,96.102
2023-02-22T06:53:26.919Z,96.125
2023-02-22T06:54:26.499Z,96.081
2023-02-22T06:55:27.107Z,96.060
2023-02-22T06:56:26.780Z,96.110
2023-02-22T06:57:26.415Z,96.041
2023-02-22T06:58:27.085Z,96.029
2023-02-22T06:59:26.770Z,96.031
2023-02-22T07:00:26.523Z,95.995
2023-02-22T07:01:26.419Z,95.961
2023-02-22T07:02:27.124Z,95.957
2023-02-22T07:03:26.885Z,95.938
2023-02-22T07:04:26.569Z,95.947
2023-02-22T07:05:26.604Z,95.873
2023-02-22T07:06:27.253Z,95.823
2023-02-22T07:07:26.906Z,95.694
2023-02-22T07:08:26.742Z,95.471
2023-02-22T07:09:26.399Z,95.120
2023-02-22T07:10:26.385Z,94.618
2023-02-22T07:11:27.029Z,94.450
2023-02-22T07:12:26.753Z,93.998
2023-02-22T07:13:26.374Z,93.727
2023-02-22T07:14:26.949Z,93.231
2023-02-22T07:15:26.680Z,92.644
2023-02-22T07:16:26.936Z,92.215
2023-02-22T07:17:26.756Z,91.805
2023-02-22T07:18:26.410Z,91.469
2023-02-22T07:19:27.052Z,91.427
2023-02-22T07:20:26.709Z,91.660
2023-02-22T07:21:27.347Z,91.225
2023-02-22T07:22:27.176Z,91.278
2023-02-22T07:23:26.802Z,91.271
2023-02-22T07:24:26.415Z,91.095
2023-02-22T07:25:27.104Z,91.232
2023-02-22T07:26:26.786Z,91.910
2023-02-22T07:27:26.364Z,92.318
2023-02-22T07:28:26.955Z,92.533
2023-02-22T07:29:26.540Z,92.732
2023-02-22T07:30:27.629Z,92.775
2023-02-22T07:31:28.264Z,93.378
2023-02-22T07:32:27.614Z,93.647
2023-02-22T07:33:26.759Z,93.863
2023-02-22T07:34:26.397Z,93.819
2023-02-22T07:35:27.137Z,93.884
2023-02-22T07:36:26.706Z,93.798
2023-02-22T07:37:27.333Z,93.874
2023-02-22T07:38:26.933Z,93.523
2023-02-22T07:39:26.557Z,93.500
2023-02-22T07:40:27.204Z,93.565
2023-02-22T07:41:26.834Z,93.638
2023-02-22T07:42:26.500Z,93.395
2023-02-22T07:43:27.168Z,93.159
2023-02-22T07:44:26.732Z,93.334
2023-02-22T07:45:27.416Z,93.083
2023-02-22T07:46:27.306Z,93.113
2023-02-22T07:47:26.909Z,92.985
2023-02-22T07:48:26.587Z,92.997
2023-02-22T07:49:27.279Z,93.111
2023-02-22T07:50:26.888Z,92.880
2023-02-22T07:51:26.496Z,92.753
2023-02-22T07:52:27.013Z,92.899
2023-02-22T07:53:28.904Z,92.894
2023-02-22T07:54:26.733Z,92.985
2023-02-22T07:55:26.396Z,93.079
2023-02-22T07:56:27.004Z,93.300
2023-02-22T07:57:26.662Z,93.065
2023-02-22T07:58:27.352Z,92.890
2023-02-22T07:59:26.991Z,92.783
2023-02-22T08:00:26.781Z,92.276
2023-02-22T08:01:26.416Z,92.386
2023-02-22T08:02:27.162Z,91.951
2023-02-22T08:03:27.017Z,92.276
2023-02-22T08:04:27.953Z,92.053
2023-02-22T08:05:26.588Z,92.087
2023-02-22T08:06:27.217Z,92.316
2023-02-22T08:07:26.884Z,92.371
2023-02-22T08:08:26.548Z,92.259
2023-02-22T08:09:27.133Z,91.114
2023-02-22T08:10:26.930Z,91.229
2023-02-22T08:12:26.357Z,90.860
2023-02-22T08:13:27.201Z,90.944
2023-02-22T08:14:26.842Z,91.257
2023-02-22T08:15:26.424Z,90.979
2023-02-22T08:17:28.222Z,90.956
2023-02-22T08:19:26.661Z,90.611
2023-02-22T08:20:26.431Z,90.895
2023-02-22T08:21:27.107Z,90.277
2023-02-22T08:22:26.959Z,90.248
2023-02-22T08:24:27.184Z,89.388
2023-02-22T08:25:26.792Z,88.986
2023-02-22T08:26:26.408Z,89.792
2023-02-22T08:27:27.257Z,88.739
2023-02-22T08:29:26.684Z,88.133
2023-02-22T08:30:27.504Z,87.862
2023-02-22T08:31:27.405Z,88.190
2023-02-22T08:32:27.825Z,88.324
2023-02-22T08:33:27.169Z,87.662
2023-02-22T08:34:26.857Z,88.011
2023-02-22T08:35:26.564Z,87.301
2023-02-22T08:36:27.188Z,86.620
2023-02-22T08:37:27.221Z,87.061
2023-02-22T08:39:26.624Z,87.626
2023-02-22T08:40:27.304Z,86.872
2023-02-22T08:41:27.047Z,88.089
2023-02-22T08:42:26.681Z,85.938
2023-02-22T08:43:26.604Z,86.769
2023-02-22T08:44:27.351Z,87.374
2023-02-22T08:45:26.980Z,86.788
2023-02-22T08:46:26.648Z,86.782
2023-02-22T08:47:27.304Z,86.975
2023-02-22T08:48:26.990Z,85.983
2023-02-22T08:49:26.657Z,86.603
2023-02-22T08:50:26.480Z,86.304
2023-02-22T08:51:29.408Z,85.876
2023-02-22T08:52:27.063Z,85.217
2023-02-22T08:53:26.766Z,85.579
2023-02-22T08:54:26.417Z,85.854
2023-02-22T08:55:27.154Z,84.738
2023-02-22T08:56:26.730Z,83.786
2023-02-22T08:57:26.453Z,83.517
2023-02-22T08:58:27.137Z,84.135
2023-02-22T08:59:26.745Z,83.126
2023-02-22T09:00:26.495Z,83.235
2023-02-22T09:01:33.257Z,82.972
2023-02-22T09:02:27.413Z,82.043
2023-02-22T09:03:27.158Z,82.771
2023-02-22T09:04:26.801Z,82.571
2023-02-22T09:06:27.393Z,81.280
2023-02-22T09:07:27.031Z,79.746
2023-02-22T09:08:26.588Z,81.011
2023-02-22T09:09:27.202Z,81.016
2023-02-22T09:11:26.468Z,79.800
2023-02-22T09:12:27.133Z,80.292
2023-02-22T09:14:27.367Z,79.176
2023-02-22T09:16:26.884Z,80.725
2023-02-22T09:17:26.737Z,78.262
2023-02-22T09:18:39.092Z,78.760
2023-02-22T09:19:26.852Z,78.239
2023-02-22T09:21:27.096Z,75.680
2023-02-22T09:22:26.841Z,75.010
2023-02-22T09:23:27.357Z,75.405
2023-02-22T09:24:27.053Z,74.762
2023-02-22T09:26:27.288Z,75.085
2023-02-22T09:27:26.925Z,75.788
2023-02-22T09:28:27.821Z,74.457
2023-02-22T09:29:26.762Z,73.141
2023-02-22T09:30:26.592Z,76.082
2023-02-22T09:31:27.406Z,74.230
2023-02-22T09:32:27.704Z,74.465
2023-02-22T09:33:27.285Z,73.454
2023-02-22T09:34:26.905Z,74.056
2023-02-22T09:35:26.517Z,72.321
2023-02-22T09:36:28.078Z,73.665
2023-02-22T09:37:26.742Z,72.367
2023-02-22T09:38:26.440Z,71.739
2023-02-22T09:39:27.201Z,72.573
2023-02-22T09:40:27.261Z,72.803
2023-02-22T09:41:27.140Z,71.369
2023-02-22T09:42:26.777Z,71.674
2023-02-22T09:43:26.492Z,70.194
2023-02-22T09:44:27.839Z,72.504
2023-02-22T09:45:26.652Z,71.617
2023-02-22T09:46:26.557Z,70.717
2023-02-22T09:47:27.292Z,71.302
2023-02-22T09:48:32.020Z,70.892
2023-02-22T09:49:26.656Z,70.036
2023-02-22T09:50:27.344Z,69.832
2023-02-22T09:51:27.056Z,68.598
2023-02-22T09:52:26.724Z,69.498
2023-02-22T09:53:28.144Z,69.647
2023-02-22T09:54:26.766Z,70.238
2023-02-22T09:55:26.425Z,69.505
2023-02-22T09:57:26.761Z,70.141
2023-02-22T09:58:26.419Z,68.145
2023-02-22T09:59:27.250Z,70.568
2023-02-22T10:00:26.986Z,70.167
2023-02-22T10:01:26.681Z,69.101
2023-02-22T10:02:26.609Z,70.089
2023-02-22T10:03:27.446Z,69.900
2023-02-22T10:05:27.064Z,69.639
2023-02-22T10:06:26.909Z,69.238
2023-02-22T10:07:26.481Z,70.623
2023-02-22T10:08:27.149Z,69.668
2023-02-22T10:09:26.906Z,70.352
2023-02-22T10:10:26.577Z,68.233
2023-02-22T10:11:27.396Z,70.425
2023-02-22T10:12:27.345Z,69.214
2023-02-22T10:13:26.988Z,69.406
2023-02-22T10:14:26.681Z,68.670
2023-02-22T10:15:27.087Z,68.041
2023-02-22T10:16:27.402Z,68.323
2023-02-22T10:17:27.195Z,66.417
2023-02-22T10:18:26.908Z,68.714
2023-02-22T10:19:26.668Z,65.971
2023-02-22T10:20:27.327Z,67.070
2023-02-22T10:21:27.714Z,66.101
2023-02-22T10:22:27.368Z,66.646
2023-02-22T10:23:27.504Z,66.795
2023-02-22T10:25:29.086Z,66.204
2023-02-22T10:26:27.468Z,67.274
2023-02-22T10:27:27.191Z,67.144
2023-02-22T10:28:26.873Z,66.526
2023-02-22T10:30:36.646Z,64.518
2023-02-22T10:32:29.100Z,64.958
2023-02-22T10:33:28.797Z,66.223
2023-02-22T10:34:28.692Z,64.514
2023-02-22T10:35:31.010Z,63.373
2023-02-22T10:36:29.287Z,64.905
2023-02-22T10:37:29.005Z,62.780
2023-02-22T10:38:28.724Z,63.015
2023-02-22T10:39:28.496Z,64.274
2023-02-22T10:40:29.228Z,65.612
2023-02-22T10:41:28.981Z,64.665
2023-02-22T10:42:28.608Z,65.668
2023-02-22T10:43:29.236Z,62.400
2023-02-22T10:44:28.921Z,63.568
2023-02-22T10:45:28.620Z,62.591
2023-02-22T10:46:28.601Z,64.361
2023-02-22T10:47:29.203Z,63.841
2023-02-22T10:48:28.844Z,63.520
2023-02-22T10:49:28.553Z,63.293
2023-02-22T10:50:29.241Z,62.734
2023-02-22T10:51:28.980Z,62.978
2023-02-22T10:52:30.406Z,63.234
2023-02-22T10:53:29.400Z,62.616
2023-02-22T10:54:29.025Z,60.924
2023-02-22T10:55:33.689Z,60.579
2023-02-22T10:56:28.682Z,60.068
2023-02-22T10:57:29.538Z,60.558
2023-02-22T10:58:29.183Z,60.394
2023-02-22T10:59:28.873Z,62.364
2023-02-22T11:00:28.674Z,60.625
2023-02-22T11:01:29.522Z,61.750
2023-02-22T11:02:29.252Z,59.221
2023-02-22T11:03:28.937Z,59.497
2023-02-22T11:04:28.605Z,60.182
2023-02-22T11:05:29.489Z,58.961
2023-02-22T11:06:29.140Z,57.640
2023-02-22T11:07:28.866Z,58.113
2023-02-22T11:08:28.464Z,58.277
2023-02-22T11:09:29.151Z,58.843
2023-02-22T11:10:28.856Z,57.798
2023-02-22T11:11:28.537Z,57.920
2023-02-22T11:12:29.354Z,58.193
2023-02-22T11:13:29.082Z,59.425
2023-02-22T11:14:28.819Z,58.578
2023-02-22T11:15:28.448Z,57.874
2023-02-22T11:16:29.269Z,58.775
2023-02-22T11:17:29.217Z,58.824
2023-02-22T11:18:28.929Z,58.202
2023-02-22T11:19:28.691Z,57.973
2023-02-22T11:20:29.369Z,57.277
2023-02-22T11:21:29.111Z,56.377
2023-02-22T11:22:28.793Z,57.668
2023-02-22T11:23:28.546Z,56.402
2023-02-22T11:24:40.326Z,56.490
2023-02-22T11:25:29.060Z,57.582
2023-02-22T11:26:28.793Z,56.407
2023-02-22T11:27:28.477Z,57.416
2023-02-22T11:28:29.076Z,56.507
2023-02-22T11:29:28.508Z,56.663
2023-02-22T11:30:29.507Z,56.402
2023-02-22T11:31:28.818Z,54.540
2023-02-22T11:32:28.948Z,54.037
2023-02-22T11:33:28.860Z,56.156
2023-02-22T11:34:28.566Z,54.702
2023-02-22T11:35:29.349Z,54.513
2023-02-22T11:36:29.200Z,55.803
2023-02-22T11:37:28.992Z,55.000
2023-02-22T11:38:28.647Z,54.748
2023-02-22T11:39:29.612Z,55.025
2023-02-22T11:40:28.499Z,55.103
2023-02-22T11:41:29.340Z,56.011
2023-02-22T11:42:29.083Z,56.476
2023-02-22T11:43:28.727Z,55.286
2023-02-22T11:44:28.365Z,54.285
2023-02-22T11:45:29.032Z,55.200
2023-02-22T11:47:32.298Z,55.904
2023-02-22T11:48:31.965Z,54.882
2023-02-22T11:49:31.693Z,54.344
2023-02-22T11:50:32.400Z,55.782
2023-02-22T11:51:33.977Z,55.423
2023-02-22T11:52:31.553Z,54.780
2023-02-22T11:53:32.240Z,55.999
2023-02-22T11:54:31.594Z,55.637
2023-02-22T11:55:43.012Z,54.279
2023-02-22T11:57:31.700Z,56.467
2023-02-22T11:58:33.141Z,55.742
2023-02-22T11:59:31.898Z,56.718
2023-02-22T12:00:31.800Z,56.093
2023-02-22T12:01:31.456Z,56.459
2023-02-22T12:02:32.189Z,56.617
2023-02-22T12:04:32.302Z,56.108
2023-02-22T12:06:32.042Z,57.197
2023-02-22T12:07:31.806Z,56.360
2023-02-22T12:08:37.776Z,56.762
2023-02-22T12:09:32.233Z,55.704
2023-02-22T12:10:32.022Z,55.913
2023-02-22T12:11:31.720Z,56.308
2023-02-22T12:12:31.417Z,56.875
2023-02-22T12:14:31.823Z,56.314
2023-02-22T12:15:31.639Z,56.070
2023-02-22T12:16:31.579Z,56.221
2023-02-22T12:17:32.384Z,55.948
2023-02-22T12:19:32.497Z,56.217
2023-02-22T12:20:33.255Z,55.910
2023-02-22T12:21:32.993Z,55.194
2023-02-22T12:22:32.636Z,54.540
2023-02-22T12:23:33.190Z,56.167
2023-02-22T12:24:32.898Z,56.335
2023-02-22T12:25:32.844Z,55.025
2023-02-22T12:26:32.520Z,53.998
2023-02-22T12:27:33.289Z,53.174
2023-02-22T12:28:38.058Z,55.032
2023-02-22T12:29:32.965Z,54.309
2023-02-22T12:30:32.822Z,54.752
2023-02-22T12:31:32.852Z,54.971
2023-02-22T12:32:33.317Z,55.851
2023-02-22T12:33:33.276Z,55.093
2023-02-22T12:34:34.338Z,53.154
2023-02-22T12:35:33.069Z,55.944
2023-02-22T12:36:32.783Z,54.822
2023-02-22T12:37:32.504Z,53.215
2023-02-22T12:38:33.239Z,52.856
2023-02-22T12:39:52.080Z,53.422
2023-02-22T12:41:32.707Z,52.627
2023-02-22T12:42:32.459Z,52.574
2023-02-22T12:43:33.149Z,52.274
2023-02-22T12:44:32.880Z,52.911
2023-02-22T12:45:32.625Z,52.532
2023-02-22T12:46:33.390Z,53.726
2023-02-22T12:47:33.154Z,51.301
2023-02-22T12:49:32.510Z,54.716
2023-02-22T12:50:35.246Z,54.418
2023-02-22T12:51:32.848Z,53.766
2023-02-22T12:52:37.333Z,53.016
2023-02-22T12:53:33.388Z,53.630
2023-02-22T12:54:33.058Z,54.645
2023-02-22T12:55:32.757Z,53.756
2023-02-22T12:56:32.500Z,53.737
2023-02-22T12:57:33.089Z,53.934
2023-02-22T12:58:32.789Z,54.086